Highland Hills, Ohio
Current Conditions -  °F | °C
As of 7:53 AM on Saturday 25 Oct 2014 (Local Time) from KBKL Reporting Station
Broken Clouds Broken Clouds  
Wind Chill: 55°   Ceiling: 10000
Heat Index: 55°   Visibility: 10mi
Dew Point: 47°   Wind: 13mph
Humidity: 74%   Direction: 210°SSW
Pressure: 29.89"   Gusts: NA
Location:  41.4368°N, 81.5396°W
Report Text: KBKL 251153Z 21011KT 10SM BKN100 13/08 A2989 RMK AO2 SLP121 T01280083 10133 20117 57006
Loading
Personal Weather Stations






























Interactive Weather Map
Tropical Storm Tracking
New forecast layout! Learn more

10-Day Weather Forecast

Advertisements
Track Severe Weather on mobile